Time;durP1;ratioP1;P1;durP2;ratioP2;P2;SDS_P1;SDS_P2;PMS_P1;PMS_P2;Temp;Humidity;BMP_temperature;BMP_pressure;BME280_temperature;BME280_humidity;BME280_pressure;Samples;Min_cycle;Max_cycle;Signal;HPM_P1;HPM_P2
2024/01/04 00:00:25;;;;;;;3.75;0.90;;;7.10;99.90;;;;;;5087595;28;20056;-66
2024/01/04 00:02:51;;;;;;;3.22;0.30;;;7.10;99.90;;;;;;5069970;28;20024;-68
2024/01/04 00:05:17;;;;;;;2.15;0.30;;;7.10;99.90;;;;;;5087821;28;20027;-68
2024/01/04 00:07:43;;;;;;;2.72;0.20;;;7.10;99.90;;;;;;5094374;28;20436;-68
2024/01/04 00:10:09;;;;;;;1.38;0.30;;;7.20;99.90;;;;;;5094144;28;20039;-69
2024/01/04 00:12:35;;;;;;;2.83;0.22;;;7.20;99.90;;;;;;5089769;28;20046;-68
2024/01/04 00:15:03;;;;;;;0.57;0.30;;;7.20;99.90;;;;;;5094440;28;20032;-68
2024/01/04 00:17:29;;;;;;;2.72;0.20;;;7.30;99.90;;;;;;5091092;28;20036;-67
2024/01/04 00:19:55;;;;;;;1.80;0.28;;;7.30;99.90;;;;;;5095316;28;20032;-68
2024/01/04 00:22:20;;;;;;;2.97;0.40;;;7.20;99.90;;;;;;5093548;28;20024;-68
2024/01/04 00:24:46;;;;;;;4.47;0.28;;;7.20;99.90;;;;;;5095420;28;20031;-68
2024/01/04 00:27:12;;;;;;;0.85;0.20;;;7.20;99.90;;;;;;5093957;28;20043;-68
2024/01/04 00:29:38;;;;;;;3.05;0.22;;;7.20;99.90;;;;;;5076067;28;20040;-68
2024/01/04 00:32:03;;;;;;;1.80;0.20;;;7.10;99.90;;;;;;5093986;28;20056;-68
2024/01/04 00:34:29;;;;;;;3.20;0.52;;;7.10;99.90;;;;;;5093831;28;20035;-68
2024/01/04 00:36:57;;;;;;;2.63;0.30;;;7.10;99.90;;;;;;5094856;28;20486;-68
2024/01/04 00:39:24;;;;;;;2.05;0.43;;;7.20;99.90;;;;;;5094125;28;20036;-68
2024/01/04 00:41:51;;;;;;;1.02;0.20;;;7.10;99.90;;;;;;5076402;28;20055;-68
2024/01/04 00:44:16;;;;;;;3.13;0.40;;;7.10;99.90;;;;;;5093649;28;20166;-68
2024/01/04 00:46:42;;;;;;;2.92;0.57;;;7.00;99.90;;;;;;5087907;28;20107;-68
2024/01/04 00:49:08;;;;;;;4.85;0.30;;;7.00;99.90;;;;;;5094510;28;20028;-67
2024/01/04 00:51:33;;;;;;;1.52;0.30;;;7.00;99.90;;;;;;5093913;28;20036;-67
2024/01/04 00:53:59;;;;;;;1.23;0.52;;;7.00;99.90;;;;;;5090653;28;20648;-68
2024/01/04 00:56:31;;;;;;;2.22;0.30;;;7.00;99.90;;;;;;5093501;28;20038;-69
2024/01/04 00:58:56;;;;;;;5.78;0.60;;;7.00;99.90;;;;;;5076205;28;20147;-67
2024/01/04 01:01:22;;;;;;;4.38;0.73;;;7.00;99.90;;;;;;5094941;28;20131;-68
2024/01/04 01:03:47;;;;;;;4.35;0.50;;;6.90;99.90;;;;;;5096101;28;20592;-68
2024/01/04 01:06:13;;;;;;;4.30;0.40;;;6.90;99.90;;;;;;5096349;28;20032;-69
2024/01/04 01:08:39;;;;;;;4.07;0.47;;;6.80;99.90;;;;;;5110224;28;20476;-67
2024/01/04 01:11:04;;;;;;;3.53;0.30;;;6.80;99.90;;;;;;5094829;28;20161;-68
2024/01/04 01:13:30;;;;;;;4.97;0.38;;;6.80;99.90;;;;;;5100859;28;20039;-68
2024/01/04 01:15:56;;;;;;;1.75;0.50;;;6.70;99.90;;;;;;5095044;28;20491;-70
2024/01/04 01:18:21;;;;;;;3.40;0.47;;;6.70;99.90;;;;;;5099395;28;20044;-70
2024/01/04 01:20:47;;;;;;;2.45;0.75;;;6.70;99.90;;;;;;5092882;28;20029;-71
2024/01/04 01:23:12;;;;;;;4.40;0.30;;;6.70;99.90;;;;;;5107517;28;20085;-71
2024/01/04 01:25:38;;;;;;;3.40;0.43;;;6.80;99.90;;;;;;5094796;28;20145;-70
2024/01/04 01:28:04;;;;;;;2.67;0.57;;;6.80;99.90;;;;;;5111674;28;20080;-70
2024/01/04 01:30:29;;;;;;;3.90;0.43;;;6.70;99.90;;;;;;5110053;28;20122;-71
2024/01/04 01:32:55;;;;;;;7.00;0.47;;;6.80;99.90;;;;;;5095764;28;20078;-69
2024/01/04 01:35:22;;;;;;;1.38;0.63;;;6.80;99.90;;;;;;5090306;28;20039;-70
2024/01/04 01:37:47;;;;;;;2.30;0.47;;;6.80;99.90;;;;;;5095217;28;20036;-70
2024/01/04 01:40:13;;;;;;;1.67;0.35;;;6.90;99.90;;;;;;5091000;28;20082;-71
2024/01/04 01:42:38;;;;;;;2.90;0.47;;;6.80;99.90;;;;;;5103280;28;20034;-71
2024/01/04 01:45:05;;;;;;;4.40;0.52;;;6.80;99.90;;;;;;5091526;28;20040;-70
2024/01/04 01:47:31;;;;;;;1.95;0.50;;;6.70;99.90;;;;;;5091661;28;20036;-70
2024/01/04 01:49:56;;;;;;;7.10;0.45;;;6.70;99.90;;;;;;5073310;28;20028;-70
2024/01/04 01:52:22;;;;;;;6.32;0.57;;;6.70;99.90;;;;;;5096244;28;20465;-71
2024/01/04 01:54:49;;;;;;;5.30;0.57;;;6.60;99.90;;;;;;5095884;28;20031;-70
2024/01/04 01:57:15;;;;;;;1.27;0.45;;;6.60;99.90;;;;;;5092557;28;20034;-71
2024/01/04 01:59:44;;;;;;;7.60;0.60;;;6.60;99.90;;;;;;5088602;28;20070;-69
2024/01/04 02:02:10;;;;;;;3.13;0.50;;;6.60;99.90;;;;;;5107785;28;20055;-70
2024/01/04 02:04:35;;;;;;;6.95;0.52;;;6.50;99.90;;;;;;5081372;28;20048;-70
2024/01/04 02:07:01;;;;;;;3.13;0.50;;;6.50;99.90;;;;;;5075918;28;20101;-70
2024/01/04 02:09:27;;;;;;;2.60;0.40;;;6.50;99.90;;;;;;5090938;28;20043;-70
2024/01/04 02:12:04;;;;;;;4.70;0.45;;;6.50;99.90;;;;;;5108884;28;20027;-70
2024/01/04 02:14:30;;;;;;;2.65;0.38;;;6.50;99.90;;;;;;5108366;28;20561;-70
2024/01/04 02:16:55;;;;;;;8.38;0.98;;;6.50;99.90;;;;;;5093605;28;20115;-70
2024/01/04 02:19:22;;;;;;;6.15;0.70;;;6.50;99.90;;;;;;5091043;28;20686;-70
2024/01/04 02:21:47;;;;;;;8.65;0.63;;;6.50;99.90;;;;;;5101003;28;20564;-70
2024/01/04 02:24:13;;;;;;;2.80;0.45;;;6.50;99.90;;;;;;5104835;28;20031;-70
2024/01/04 02:26:38;;;;;;;5.95;0.50;;;6.60;99.90;;;;;;5105865;28;20086;-70
2024/01/04 02:29:04;;;;;;;8.18;0.75;;;6.60;99.90;;;;;;5090559;28;20078;-70
2024/01/04 02:31:29;;;;;;;2.85;0.30;;;6.50;99.90;;;;;;5104787;28;20036;-68
2024/01/04 02:33:55;;;;;;;6.47;0.55;;;6.50;99.90;;;;;;5090123;28;20092;-68
2024/01/04 02:36:21;;;;;;;12.10;0.95;;;6.50;99.90;;;;;;5107803;28;20046;-68
2024/01/04 02:38:46;;;;;;;1.90;0.47;;;6.50;99.90;;;;;;5102025;28;20032;-69
2024/01/04 02:41:12;;;;;;;3.30;0.25;;;6.50;99.90;;;;;;5074338;28;20039;-68
2024/01/04 02:43:37;;;;;;;1.02;0.35;;;6.60;99.90;;;;;;5086223;28;20026;-68
2024/01/04 02:46:03;;;;;;;3.65;0.43;;;6.60;99.90;;;;;;5093863;28;20028;-68
2024/01/04 02:48:29;;;;;;;3.50;0.40;;;6.60;99.90;;;;;;5108641;28;20434;-68
2024/01/04 02:50:54;;;;;;;8.65;0.60;;;6.60;99.90;;;;;;5071666;28;20055;-68
2024/01/04 02:53:20;;;;;;;5.25;0.40;;;6.60;99.90;;;;;;5107451;28;20482;-69
2024/01/04 02:55:45;;;;;;;3.00;0.40;;;6.60;99.90;;;;;;5105428;28;20028;-67
2024/01/04 02:58:11;;;;;;;1.52;0.25;;;6.60;99.90;;;;;;5099176;28;20056;-67
2024/01/04 03:00:37;;;;;;;1.05;0.20;;;6.60;99.90;;;;;;5091119;28;20095;-70
2024/01/04 03:03:02;;;;;;;1.90;0.20;;;6.70;99.90;;;;;;5089686;28;20043;-68
2024/01/04 03:05:28;;;;;;;4.15;0.47;;;6.60;99.90;;;;;;5088951;28;20028;-68
2024/01/04 03:07:53;;;;;;;2.88;0.30;;;6.60;99.90;;;;;;5088838;28;20028;-67
2024/01/04 03:10:19;;;;;;;2.47;0.20;;;6.60;99.90;;;;;;5088666;28;20044;-68
2024/01/04 03:12:45;;;;;;;2.72;0.35;;;6.60;99.90;;;;;;5080048;28;20046;-67
2024/01/04 03:15:12;;;;;;;6.93;0.22;;;6.60;99.90;;;;;;5069171;28;20107;-68
2024/01/04 03:17:37;;;;;;;0.88;0.13;;;6.50;99.90;;;;;;5068370;28;20142;-67
2024/01/04 03:20:04;;;;;;;0.85;0.10;;;6.50;99.90;;;;;;5087948;28;20526;-67
2024/01/04 03:22:29;;;;;;;0.82;0.20;;;6.50;99.90;;;;;;5088305;28;20032;-68
2024/01/04 03:24:55;;;;;;;1.95;0.40;;;6.50;99.90;;;;;;5088477;28;20482;-68
2024/01/04 03:27:21;;;;;;;1.58;0.30;;;6.50;99.90;;;;;;5088478;28;20028;-71
2024/01/04 03:29:46;;;;;;;0.85;0.08;;;6.40;99.90;;;;;;5083918;28;20458;-69
2024/01/04 03:32:12;;;;;;;0.95;0.15;;;6.40;99.90;;;;;;5085902;28;20036;-70
2024/01/04 03:34:37;;;;;;;0.90;0.10;;;6.40;99.90;;;;;;5078407;28;20147;-70
2024/01/04 03:37:03;;;;;;;1.45;0.20;;;6.40;99.90;;;;;;5089009;28;20095;-70
2024/01/04 03:39:29;;;;;;;0.10;0.00;;;6.40;99.90;;;;;;5087276;28;20039;-70
2024/01/04 03:41:54;;;;;;;0.90;0.17;;;6.40;99.90;;;;;;5087850;28;20028;-70
2024/01/04 03:44:20;;;;;;;0.32;0.10;;;6.30;99.90;;;;;;5082634;28;20545;-71
2024/01/04 03:46:46;;;;;;;1.23;0.20;;;6.30;99.90;;;;;;5084969;28;20024;-67
2024/01/04 03:49:11;;;;;;;3.85;0.20;;;6.30;99.90;;;;;;5088426;28;20494;-67
2024/01/04 03:51:37;;;;;;;2.25;0.22;;;6.30;99.90;;;;;;5087359;28;20034;-68
2024/01/04 03:54:03;;;;;;;0.82;0.15;;;6.30;99.90;;;;;;5088252;28;20035;-67
2024/01/04 03:56:28;;;;;;;0.63;0.20;;;6.20;99.90;;;;;;5084441;28;20455;-68
2024/01/04 03:58:54;;;;;;;0.57;0.20;;;6.20;99.90;;;;;;5064353;28;20098;-68
2024/01/04 04:01:19;;;;;;;4.28;0.17;;;6.20;99.90;;;;;;5087408;28;20090;-68
2024/01/04 04:03:45;;;;;;;1.33;0.22;;;6.10;99.90;;;;;;5087172;28;20530;-68
2024/01/04 04:06:11;;;;;;;1.55;0.10;;;6.20;99.90;;;;;;5080208;28;20031;-68
2024/01/04 04:08:36;;;;;;;3.17;0.68;;;6.10;99.90;;;;;;5074387;28;20035;-67
2024/01/04 04:11:02;;;;;;;1.13;0.10;;;6.10;99.90;;;;;;5072674;28;20058;-68
2024/01/04 04:13:27;;;;;;;0.77;0.10;;;6.20;99.90;;;;;;5070507;28;20107;-68
2024/01/04 04:15:53;;;;;;;1.40;0.20;;;6.10;99.90;;;;;;5068374;28;20059;-67
2024/01/04 04:18:19;;;;;;;0.60;0.20;;;6.10;99.90;;;;;;5069415;28;20069;-69
2024/01/04 04:20:44;;;;;;;1.60;0.20;;;6.10;99.90;;;;;;5072280;28;20128;-68
2024/01/04 04:23:10;;;;;;;1.13;0.20;;;6.10;99.90;;;;;;5079682;28;20028;-68
2024/01/04 04:25:36;;;;;;;2.95;0.22;;;6.00;99.90;;;;;;5058744;28;20090;-68
2024/01/04 04:28:02;;;;;;;2.28;0.17;;;5.90;99.90;;;;;;5083126;28;20075;-68
2024/01/04 04:30:29;;;;;;;1.13;0.22;;;5.90;99.90;;;;;;5084117;28;20457;-68
2024/01/04 04:32:55;;;;;;;0.68;0.00;;;5.90;99.90;;;;;;5082316;28;20033;-68
2024/01/04 04:35:21;;;;;;;4.45;0.15;;;5.80;99.90;;;;;;5070302;28;20047;-68
2024/01/04 04:37:47;;;;;;;0.98;0.10;;;5.90;99.90;;;;;;5066985;28;20043;-68
2024/01/04 04:40:12;;;;;;;1.67;0.00;;;5.80;99.90;;;;;;5071885;28;20066;-68
2024/01/04 04:42:38;;;;;;;0.82;0.20;;;5.90;99.90;;;;;;5048795;28;20382;-68
2024/01/04 04:45:04;;;;;;;2.50;0.35;;;5.90;99.90;;;;;;5066926;28;20468;-68
2024/01/04 04:47:30;;;;;;;0.50;0.10;;;5.90;99.90;;;;;;5075602;28;20138;-68
2024/01/04 04:49:56;;;;;;;1.25;0.20;;;5.90;99.90;;;;;;5068996;28;20041;-68
2024/01/04 04:52:22;;;;;;;0.70;0.10;;;6.00;99.90;;;;;;5070985;28;20107;-68
2024/01/04 04:54:47;;;;;;;0.93;0.32;;;6.00;99.90;;;;;;5069080;28;20028;-68
2024/01/04 04:57:13;;;;;;;4.05;0.30;;;6.00;99.90;;;;;;5077909;28;20151;-68
2024/01/04 04:59:39;;;;;;;1.23;0.15;;;6.00;99.90;;;;;;5054671;28;20595;-66
2024/01/04 05:02:04;;;;;;;1.10;0.30;;;6.00;99.90;;;;;;5088061;28;20052;-68
2024/01/04 05:04:30;;;;;;;4.00;0.30;;;6.00;99.90;;;;;;5095155;28;20028;-68
2024/01/04 05:06:55;;;;;;;0.30;0.10;;;6.00;99.90;;;;;;5095000;28;20039;-68
2024/01/04 05:09:22;;;;;;;1.42;0.20;;;6.00;99.90;;;;;;5091361;28;20047;-67
2024/01/04 05:11:47;;;;;;;2.80;0.52;;;6.00;99.90;;;;;;5090568;28;20031;-68
2024/01/04 05:14:13;;;;;;;0.50;0.30;;;6.00;99.90;;;;;;5097823;28;20032;-68
2024/01/04 05:16:38;;;;;;;1.63;0.40;;;6.00;99.90;;;;;;5078114;28;20020;-69
2024/01/04 05:19:09;;;;;;;2.92;0.20;;;6.10;99.90;;;;;;5090212;28;20040;-68
2024/01/04 05:21:34;;;;;;;;;;;6.10;99.90;;;;;;5095206;28;20028;-67
2024/01/04 05:24:00;;;;;;;2.40;0.40;;;6.10;99.90;;;;;;5095095;28;20369;-69
2024/01/04 05:26:26;;;;;;;1.73;0.50;;;6.10;99.90;;;;;;5099290;28;20028;-69
2024/01/04 05:28:52;;;;;;;3.42;0.60;;;6.20;99.90;;;;;;5092219;28;20058;-69
2024/01/04 05:31:19;;;;;;;6.57;0.93;;;6.20;99.90;;;;;;5095046;28;20048;-68
2024/01/04 05:33:46;;;;;;;4.00;0.60;;;6.20;99.90;;;;;;5090705;28;20138;-69
2024/01/04 05:36:12;;;;;;;6.47;0.70;;;6.10;99.90;;;;;;5091017;28;20427;-70
2024/01/04 05:38:37;;;;;;;0.70;0.30;;;6.20;99.90;;;;;;5076250;28;20124;-68
2024/01/04 05:41:06;;;;;;;1.90;0.30;;;6.10;99.90;;;;;;5072634;28;20024;-68
2024/01/04 05:43:33;;;;;;;1.15;0.35;;;6.20;99.90;;;;;;5078630;28;20016;-69
2024/01/04 05:46:01;;;;;;;3.40;0.77;;;6.20;99.90;;;;;;5098080;28;20036;-66
2024/01/04 05:48:27;;;;;;;2.47;0.45;;;6.10;99.90;;;;;;5089227;28;20500;-69
2024/01/04 05:50:53;;;;;;;1.13;0.50;;;6.20;99.90;;;;;;5091508;28;20035;-67
2024/01/04 05:53:18;;;;;;;3.95;0.60;;;6.20;99.90;;;;;;5094772;28;20039;-68
2024/01/04 05:55:44;;;;;;;2.38;0.43;;;6.20;99.90;;;;;;5091461;28;20032;-68
2024/01/04 05:58:10;;;;;;;3.07;0.40;;;6.20;99.90;;;;;;5087735;28;20043;-69
2024/01/04 06:00:36;;;;;;;3.92;0.50;;;6.20;99.90;;;;;;5088475;28;20279;-68
2024/01/04 06:03:01;;;;;;;4.85;0.50;;;6.20;99.90;;;;;;5082302;28;20043;-68
2024/01/04 06:05:27;;;;;;;1.38;0.40;;;6.20;99.90;;;;;;5075221;28;20028;-68
2024/01/04 06:07:53;;;;;;;2.78;0.50;;;6.20;99.90;;;;;;5062351;28;20043;-69
2024/01/04 06:10:18;;;;;;;1.60;0.30;;;6.20;99.90;;;;;;5066423;28;20021;-67
2024/01/04 06:12:44;;;;;;;1.05;0.38;;;6.20;99.90;;;;;;5092737;28;20030;-67
2024/01/04 06:15:10;;;;;;;4.25;0.50;;;6.20;99.90;;;;;;5091673;28;20477;-68
2024/01/04 06:17:36;;;;;;;1.70;0.45;;;6.20;99.90;;;;;;5088329;28;20030;-68
2024/01/04 06:20:02;;;;;;;4.93;0.90;;;6.20;99.90;;;;;;5094375;28;20036;-68
2024/01/04 06:22:28;;;;;;;1.88;0.52;;;6.20;99.90;;;;;;5099270;28;20028;-69
2024/01/04 06:24:53;;;;;;;1.05;0.40;;;6.20;99.90;;;;;;5098460;28;20024;-68
2024/01/04 06:27:19;;;;;;;4.22;0.50;;;6.30;99.90;;;;;;5097337;28;20553;-68
2024/01/04 06:29:44;;;;;;;4.07;0.70;;;6.20;99.90;;;;;;5090538;28;20040;-69
2024/01/04 06:32:10;;;;;;;2.72;0.40;;;6.20;99.90;;;;;;5088092;28;20093;-69
2024/01/04 06:34:36;;;;;;;2.42;0.50;;;6.20;99.90;;;;;;5086953;28;20031;-68
2024/01/04 06:37:02;;;;;;;3.95;0.75;;;6.30;99.90;;;;;;5086934;28;20043;-68
2024/01/04 06:39:28;;;;;;;2.30;0.30;;;6.20;99.90;;;;;;5083839;28;20513;-69
2024/01/04 06:41:54;;;;;;;2.67;0.70;;;6.20;99.90;;;;;;5077688;28;20121;-67
2024/01/04 06:44:20;;;;;;;3.13;0.77;;;6.20;99.90;;;;;;5079999;28;20028;-68
2024/01/04 06:46:45;;;;;;;4.82;0.80;;;6.20;99.90;;;;;;5080837;28;20111;-70
2024/01/04 06:49:11;;;;;;;2.20;0.45;;;6.20;99.90;;;;;;5064187;28;20032;-67
2024/01/04 06:51:36;;;;;;;6.05;1.00;;;6.30;99.90;;;;;;5082184;28;20178;-68
2024/01/04 06:54:02;;;;;;;0.90;0.40;;;6.30;99.90;;;;;;5084926;28;20036;-67
2024/01/04 06:56:28;;;;;;;2.60;0.50;;;6.30;99.90;;;;;;5087484;28;20461;-69
2024/01/04 06:58:55;;;;;;;1.05;0.40;;;6.30;99.90;;;;;;5078813;28;20842;-70
2024/01/04 07:01:20;;;;;;;3.75;0.60;;;6.30;99.90;;;;;;5060861;28;20048;-71
2024/01/04 07:03:46;;;;;;;2.20;0.40;;;6.20;99.90;;;;;;5075364;28;20074;-72
2024/01/04 07:06:13;;;;;;;2.08;0.43;;;6.20;99.90;;;;;;5065018;28;20036;-72
2024/01/04 07:08:39;;;;;;;1.95;0.50;;;6.20;99.90;;;;;;5070382;28;20047;-70
2024/01/04 07:11:05;;;;;;;2.58;0.73;;;6.20;99.90;;;;;;5067357;28;20028;-70
2024/01/04 07:13:33;;;;;;;4.65;0.40;;;6.20;99.90;;;;;;5080594;28;20589;-71
2024/01/04 07:15:59;;;;;;;1.65;0.50;;;6.20;99.90;;;;;;5083702;28;20104;-72
2024/01/04 07:18:24;;;;;;;3.80;0.70;;;6.20;99.90;;;;;;5055897;28;20496;-72
2024/01/04 07:20:50;;;;;;;3.78;0.55;;;6.20;99.90;;;;;;5081919;28;20099;-71
2024/01/04 07:23:20;;;;;;;2.13;0.50;;;6.20;99.90;;;;;;5076302;28;20028;-68
2024/01/04 07:25:45;;;;;;;4.63;0.57;;;6.20;99.90;;;;;;5077263;28;20513;-67
2024/01/04 07:28:11;;;;;;;2.40;0.60;;;6.20;99.90;;;;;;5079985;28;20286;-68
2024/01/04 07:30:37;;;;;;;2.58;0.60;;;6.20;99.90;;;;;;5070273;28;20060;-68
2024/01/04 07:33:03;;;;;;;3.75;0.55;;;6.20;99.90;;;;;;5078743;28;20140;-67
2024/01/04 07:35:29;;;;;;;1.83;0.45;;;6.20;99.90;;;;;;5079510;28;20125;-69
2024/01/04 07:37:54;;;;;;;3.17;0.43;;;6.20;99.90;;;;;;5075906;28;20020;-71
2024/01/04 07:40:20;;;;;;;2.83;0.60;;;6.20;99.90;;;;;;5082302;28;20039;-66
2024/01/04 07:42:46;;;;;;;5.75;0.85;;;6.10;99.90;;;;;;5076188;28;20032;-68
2024/01/04 07:45:12;;;;;;;4.97;0.70;;;6.10;99.90;;;;;;5076163;28;20060;-68
2024/01/04 07:47:39;;;;;;;4.60;1.15;;;6.10;99.90;;;;;;5074710;28;20050;-70
2024/01/04 07:50:05;;;;;;;6.95;1.10;;;6.10;99.90;;;;;;5075014;28;20108;-69
2024/01/04 07:52:30;;;;;;;5.35;0.80;;;6.10;99.90;;;;;;5081607;28;20379;-69
2024/01/04 07:54:56;;;;;;;6.78;1.65;;;6.10;99.90;;;;;;5081053;28;20028;-71
2024/01/04 07:57:22;;;;;;;3.85;0.95;;;6.10;99.90;;;;;;5075445;28;20039;-69
2024/01/04 07:59:47;;;;;;;3.03;0.90;;;6.10;99.90;;;;;;5078245;28;20047;-67
2024/01/04 08:02:13;;;;;;;8.35;0.75;;;6.10;99.90;;;;;;5080365;28;20056;-67
2024/01/04 08:04:38;;;;;;;3.88;0.77;;;6.10;99.90;;;;;;5079587;28;20036;-67
2024/01/04 08:07:04;;;;;;;3.80;0.70;;;6.10;99.90;;;;;;5085014;28;20028;-67
2024/01/04 08:09:30;;;;;;;4.05;0.60;;;6.10;99.90;;;;;;5080770;28;20159;-68
2024/01/04 08:11:55;;;;;;;4.25;0.85;;;6.20;99.90;;;;;;5081173;28;20017;-67
2024/01/04 08:14:21;;;;;;;6.38;0.95;;;6.10;99.90;;;;;;5058773;28;20028;-67
2024/01/04 08:16:47;;;;;;;3.35;0.43;;;6.10;99.90;;;;;;5085831;28;20035;-66
2024/01/04 08:19:13;;;;;;;6.60;0.85;;;6.10;99.90;;;;;;5089211;28;20035;-69
2024/01/04 08:21:39;;;;;;;2.83;0.43;;;6.20;99.90;;;;;;5083145;28;20058;-71
2024/01/04 08:24:05;;;;;;;4.90;0.55;;;6.20;99.90;;;;;;5082617;28;20056;-70
2024/01/04 08:26:30;;;;;;;4.03;0.85;;;6.20;99.90;;;;;;5058346;28;20021;-67
2024/01/04 08:28:56;;;;;;;3.53;0.90;;;6.20;99.90;;;;;;5083223;28;20032;-70
2024/01/04 08:31:22;;;;;;;2.72;0.50;;;6.20;99.90;;;;;;5075936;28;20082;-71
2024/01/04 08:33:47;;;;;;;3.67;0.40;;;6.20;99.90;;;;;;5085613;28;20466;-70
2024/01/04 08:36:13;;;;;;;2.17;0.50;;;6.20;99.90;;;;;;5086938;28;20031;-70
2024/01/04 08:38:39;;;;;;;2.83;0.70;;;6.20;99.90;;;;;;5081508;28;20082;-69
2024/01/04 08:41:04;;;;;;;5.55;0.85;;;6.20;99.90;;;;;;5064091;28;20500;-68
2024/01/04 08:43:30;;;;;;;6.22;0.80;;;6.20;99.90;;;;;;5074527;28;20032;-67
2024/01/04 08:45:56;;;;;;;4.95;0.70;;;6.20;99.90;;;;;;5076125;28;20632;-67
2024/01/04 08:48:21;;;;;;;3.13;0.60;;;6.20;99.90;;;;;;5055293;28;20036;-68
2024/01/04 08:50:47;;;;;;;2.85;0.63;;;6.20;99.90;;;;;;5087022;28;20131;-67
2024/01/04 08:53:13;;;;;;;6.18;0.80;;;6.20;99.90;;;;;;5100772;28;20106;-69
2024/01/04 08:55:39;;;;;;;4.57;0.70;;;6.20;99.90;;;;;;5099483;28;20039;-70
2024/01/04 08:58:04;;;;;;;3.97;0.68;;;6.20;99.90;;;;;;5088726;28;20040;-69
2024/01/04 09:00:32;;;;;;;5.45;0.80;;;6.20;99.90;;;;;;5088104;28;20040;-70
2024/01/04 09:02:58;;;;;;;5.40;0.50;;;6.20;99.90;;;;;;5090888;28;20020;-70
2024/01/04 09:05:24;;;;;;;7.18;0.77;;;6.30;99.90;;;;;;5091667;28;20039;-65
2024/01/04 09:07:50;;;;;;;3.83;0.50;;;6.30;99.90;;;;;;5090717;28;20028;-69
2024/01/04 09:10:16;;;;;;;4.50;0.60;;;6.30;99.90;;;;;;5090761;28;20028;-69
2024/01/04 09:12:42;;;;;;;6.40;1.05;;;6.30;99.90;;;;;;5090324;28;20506;-70
2024/01/04 09:15:09;;;;;;;2.95;0.40;;;6.40;99.90;;;;;;5073811;28;20052;-69
2024/01/04 09:17:35;;;;;;;4.38;0.73;;;6.60;99.90;;;;;;5091529;28;20058;-68
2024/01/04 09:20:00;;;;;;;2.70;0.73;;;6.60;99.90;;;;;;5090464;28;20051;-68
2024/01/04 09:22:26;;;;;;;3.35;0.52;;;6.70;99.90;;;;;;5077579;28;20040;-69
2024/01/04 09:24:52;;;;;;;5.05;0.73;;;6.70;99.90;;;;;;5085473;28;20031;-68
2024/01/04 09:27:18;;;;;;;8.00;0.77;;;6.70;99.90;;;;;;5072959;28;20036;-67
2024/01/04 09:29:47;;;;;;;1.80;0.52;;;6.70;99.90;;;;;;5089491;28;20395;-69
2024/01/04 09:32:13;;;;;;;3.65;0.55;;;6.70;99.90;;;;;;5091410;28;20027;-68
2024/01/04 09:34:38;;;;;;;4.68;0.85;;;6.70;99.90;;;;;;5072380;28;20035;-69
2024/01/04 09:37:04;;;;;;;4.07;0.60;;;6.70;99.90;;;;;;5090623;28;20036;-67
2024/01/04 09:39:30;;;;;;;3.97;0.80;;;6.60;99.90;;;;;;5088741;28;20114;-67
2024/01/04 09:41:57;;;;;;;6.57;0.73;;;6.70;99.90;;;;;;5071735;28;20036;-67
2024/01/04 09:44:24;;;;;;;5.25;0.85;;;6.70;99.90;;;;;;5089439;28;20114;-68
2024/01/04 09:46:56;;;;;;;6.13;0.90;;;6.70;99.90;;;;;;5090149;28;20090;-69
2024/01/04 09:49:22;;;;;;;19.90;0.80;;;6.70;99.90;;;;;;5090884;28;20024;-67
2024/01/04 09:51:48;;;;;;;4.80;0.90;;;6.70;99.90;;;;;;5064978;28;20509;-68
2024/01/04 09:54:16;;;;;;;8.15;0.60;;;6.90;99.90;;;;;;5084371;28;20107;-68
2024/01/04 09:56:43;;;;;;;5.70;1.65;;;7.00;99.90;;;;;;5078854;28;20043;-69
2024/01/04 09:59:10;;;;;;;4.03;0.40;;;7.40;99.90;;;;;;5070378;28;20056;-68
2024/01/04 10:01:38;;;;;;;3.85;0.50;;;7.50;99.90;;;;;;5085719;28;20446;-67
2024/01/04 10:04:11;;;;;;;5.50;0.80;;;7.40;99.90;;;;;;5088036;28;20016;-67
2024/01/04 10:06:38;;;;;;;3.08;0.80;;;7.40;99.90;;;;;;5071009;28;20024;-69
2024/01/04 10:09:31;;;;;;;2.67;0.38;;;7.50;99.90;;;;;;5088810;28;21002;-69
2024/01/04 10:11:57;;;;;;;5.30;0.70;;;7.80;99.90;;;;;;5088745;28;20089;-69
2024/01/04 10:14:27;;;;;;;3.58;0.60;;;8.00;99.90;;;;;;5089080;28;20023;-68
2024/01/04 10:16:56;;;;;;;3.63;0.90;;;8.20;99.90;;;;;;5087914;28;21249;-68
2024/01/04 10:19:25;;;;;;;4.20;0.50;;;8.00;99.90;;;;;;5088542;28;20838;-68
2024/01/04 10:21:51;;;;;;;4.77;0.67;;;8.00;99.90;;;;;;5088333;28;20024;-68
2024/01/04 10:24:23;;;;;;;3.95;0.60;;;7.90;99.90;;;;;;5089153;28;20032;-69
2024/01/04 10:26:57;;;;;;;2.58;0.65;;;7.80;99.90;;;;;;5088622;28;20458;-68
2024/01/04 10:29:26;;;;;;;1.73;0.30;;;7.50;99.90;;;;;;5088189;28;20154;-68
2024/01/04 10:32:03;;;;;;;4.53;0.40;;;7.50;99.90;;;;;;5087873;28;20066;-68
2024/01/04 10:34:29;;;;;;;6.28;0.70;;;7.40;99.90;;;;;;5089156;28;20054;-67
2024/01/04 10:37:09;;;;;;;4.45;0.63;;;7.40;99.90;;;;;;5095689;28;20366;-68
2024/01/04 10:39:36;;;;;;;3.70;0.60;;;7.30;99.90;;;;;;5087497;28;20047;-69
2024/01/04 10:42:02;;;;;;;2.90;0.45;;;7.30;99.90;;;;;;5102434;28;20486;-69
2024/01/04 10:44:28;;;;;;;2.70;0.40;;;7.30;99.90;;;;;;5088823;28;20114;-69
2024/01/04 10:46:58;;;;;;;4.35;0.50;;;7.30;99.90;;;;;;5081360;28;20050;-68
2024/01/04 10:49:24;;;;;;;5.53;0.40;;;7.30;99.90;;;;;;5101014;28;20115;-68
2024/01/04 10:52:01;;;;;;;6.75;0.60;;;7.30;99.90;;;;;;5088026;28;20114;-69
2024/01/04 10:54:34;;;;;;;2.22;0.40;;;7.30;99.90;;;;;;5087585;28;20702;-68
2024/01/04 10:57:02;;;;;;;2.95;0.40;;;7.40;99.90;;;;;;5077818;28;20032;-70
2024/01/04 10:59:34;;;;;;;1.88;0.45;;;7.40;99.90;;;;;;5086157;28;20075;-67
2024/01/04 11:02:01;;;;;;;4.00;0.40;;;7.40;99.90;;;;;;5062975;28;20061;-68
2024/01/04 11:04:28;;;;;;;2.33;0.30;;;7.40;99.90;;;;;;5035678;28;20052;-67
2024/01/04 11:06:54;;;;;;;6.10;0.50;;;7.40;99.90;;;;;;5058583;28;20027;-66
2024/01/04 11:09:23;;;;;;;6.20;0.40;;;7.40;99.90;;;;;;5058529;28;20072;-68
2024/01/04 11:11:51;;;;;;;6.57;0.60;;;7.50;99.90;;;;;;5058238;28;20025;-65
2024/01/04 11:14:21;;;;;;;5.25;0.55;;;7.40;99.90;;;;;;5060877;28;20032;-66
2024/01/04 11:17:06;;;;;;;4.32;0.60;;;7.30;99.90;;;;;;5058216;28;20040;-68
2024/01/04 11:20:08;;;;;;;6.70;0.90;;;7.20;99.90;;;;;;5062458;28;20032;-67
2024/01/04 11:23:11;;;;;;;8.55;0.70;;;7.20;99.90;;;;;;5047772;28;20044;-66
2024/01/04 11:26:14;;;;;;;3.72;0.73;;;7.20;99.90;;;;;;5057914;28;20072;-66
2024/01/04 11:28:41;;;;;;;4.80;0.60;;;7.10;99.90;;;;;;5055937;28;20498;-67
2024/01/04 11:31:07;;;;;;;7.00;0.85;;;7.20;99.90;;;;;;5066093;28;20226;-68
2024/01/04 11:33:37;;;;;;;6.72;0.73;;;7.20;99.90;;;;;;5069088;28;20454;-67
2024/01/04 11:36:03;;;;;;;3.00;0.60;;;7.10;99.90;;;;;;5049594;28;20029;-68
2024/01/04 11:38:35;;;;;;;2.53;0.57;;;7.30;99.90;;;;;;5059967;28;20035;-68
2024/01/04 11:41:04;;;;;;;4.07;0.60;;;7.50;99.90;;;;;;5033905;28;20086;-68
2024/01/04 11:43:40;;;;;;;3.92;0.47;;;7.50;99.90;;;;;;5065519;28;20117;-68
2024/01/04 11:46:22;;;;;;;4.43;0.50;;;7.60;99.90;;;;;;5067803;28;20024;-68
2024/01/04 11:49:07;;;;;;;6.47;0.82;;;7.60;99.90;;;;;;5068845;28;20570;-71
2024/01/04 11:51:34;;;;;;;2.05;0.55;;;7.40;99.90;;;;;;5050671;28;20049;-67
2024/01/04 11:54:00;;;;;;;3.83;0.70;;;7.30;99.90;;;;;;5042742;28;20055;-68
2024/01/04 11:56:26;;;;;;;2.72;0.55;;;7.20;99.90;;;;;;5054319;28;20029;-66
2024/01/04 11:58:52;;;;;;;2.10;0.43;;;7.20;99.90;;;;;;5033770;28;20501;-69
2024/01/04 12:01:25;;;;;;;3.03;0.52;;;7.20;99.90;;;;;;5067454;28;20131;-69
2024/01/04 12:03:53;;;;;;;4.55;0.77;;;7.30;99.90;;;;;;5069234;28;20036;-69
2024/01/04 12:06:21;;;;;;;2.70;0.60;;;7.40;99.90;;;;;;5074069;28;20032;-67
2024/01/04 12:08:51;;;;;;;5.97;0.60;;;7.40;99.90;;;;;;5065490;28;20036;-70
2024/01/04 12:11:19;;;;;;;3.08;0.47;;;7.30;99.90;;;;;;5068120;28;20112;-69
2024/01/04 12:13:45;;;;;;;2.45;0.52;;;7.30;99.90;;;;;;5077987;28;20407;-67
2024/01/04 12:16:11;;;;;;;2.92;0.30;;;7.20;99.90;;;;;;5080832;28;20064;-67
2024/01/04 12:18:37;;;;;;;3.28;0.45;;;7.20;99.90;;;;;;5068358;28;20137;-67
2024/01/04 12:21:07;;;;;;;1.73;0.70;;;7.20;99.90;;;;;;5067534;28;20074;-69
2024/01/04 12:23:34;;;;;;;4.35;0.60;;;7.20;99.90;;;;;;5069082;28;20508;-70
2024/01/04 12:26:00;;;;;;;1.80;0.38;;;7.20;99.90;;;;;;5066371;28;20032;-68
2024/01/04 12:28:27;;;;;;;1.98;0.40;;;7.20;99.90;;;;;;5066423;28;20119;-70
2024/01/04 12:30:53;;;;;;;4.65;0.45;;;7.30;99.90;;;;;;5064139;28;20037;-69
2024/01/04 12:33:18;;;;;;;7.05;0.60;;;7.20;99.90;;;;;;5068433;28;20395;-68
2024/01/04 12:35:44;;;;;;;1.20;0.40;;;7.30;99.90;;;;;;5068458;28;20024;-65
2024/01/04 12:38:10;;;;;;;3.42;0.50;;;7.50;99.90;;;;;;5067647;28;20029;-67
2024/01/04 12:40:41;;;;;;;1.75;0.50;;;7.60;99.90;;;;;;5067963;28;20032;-67
2024/01/04 12:43:08;;;;;;;2.25;0.20;;;7.70;99.90;;;;;;5067432;28;20052;-67
2024/01/04 12:45:34;;;;;;;2.20;0.40;;;7.50;99.90;;;;;;5068377;28;20031;-67
2024/01/04 12:48:01;;;;;;;0.95;0.25;;;7.40;99.90;;;;;;5067498;28;20032;-67
2024/01/04 12:50:32;;;;;;;1.83;0.38;;;7.40;99.90;;;;;;5075041;28;20032;-69
2024/01/04 12:52:58;;;;;;;2.83;0.40;;;7.70;99.90;;;;;;5070835;28;20032;-69
2024/01/04 12:55:27;;;;;;;0.57;0.20;;;7.90;99.90;;;;;;5071920;28;20031;-66